Time;durP1;ratioP1;P1;durP2;ratioP2;P2;SDS_P1;SDS_P2;PMS_P1;PMS_P2;Temp;Humidity;BMP_temperature;BMP_pressure;BME280_temperature;BME280_humidity;BME280_pressure;Samples;Min_cycle;Max_cycle;Signal;HPM_P1;HPM_P2
2023/08/01 00:01:43;;;;;;;;;;;;;;;20.23;66.92;100004.59;4100409;29;19922;-55
2023/08/01 00:03:44;;;;;;;;;;;;;;;20.24;66.86;99994.75;4100582;29;19922;-56
2023/08/01 00:05:46;;;;;;;;;;;;;;;20.23;66.81;99996.59;4099606;29;20091;-55
2023/08/01 00:07:48;;;;;;;;;;;;;;;20.25;66.71;100001.78;4100342;29;19960;-55
2023/08/01 00:09:49;;;;;;;;;;;;;;;20.25;66.72;99991.09;4100450;29;19923;-55
2023/08/01 00:11:50;;;;;;;;;;;;;;;20.22;67.05;99986.00;4100340;29;19922;-56
2023/08/01 00:13:52;;;;;;;;;;;;;;;20.24;66.94;100000.09;4100435;29;19945;-56
2023/08/01 00:15:53;;;;;;;;;;;;;;;20.23;66.60;100001.06;4099868;29;20062;-56
2023/08/01 00:18:08;;;;;;;;;;;;;;;20.23;67.08;99999.25;4100385;29;19922;-55
2023/08/01 00:20:10;;;;;;;;;;;;;;;20.21;68.15;99998.53;4099866;29;20350;-56
2023/08/01 00:22:11;;;;;;;;;;;;;;;20.19;67.47;99992.47;4100228;29;19923;-56
2023/08/01 00:24:12;;;;;;;;;;;;;;;20.21;66.84;99993.19;4100304;28;19972;-55
2023/08/01 00:26:14;;;;;;;;;;;;;;;20.13;67.76;99990.34;4099675;29;19970;-55
2023/08/01 00:28:16;;;;;;;;;;;;;;;20.18;66.92;99998.78;4100161;29;20349;-54
2023/08/01 00:30:17;;;;;;;;;;;;;;;20.20;68.27;99996.00;4100230;29;19960;-55
2023/08/01 00:32:19;;;;;;;;;;;;;;;20.20;67.02;99990.66;4100344;29;19946;-54
2023/08/01 00:34:21;;;;;;;;;;;;;;;20.23;68.07;99993.91;4099705;29;19957;-55
2023/08/01 00:36:22;;;;;;;;;;;;;;;20.18;67.95;99985.44;4099355;29;20055;-54
2023/08/01 00:38:23;;;;;;;;;;;;;;;20.21;67.03;99977.16;4100062;29;20302;-50
2023/08/01 00:40:29;;;;;;;;;;;;;;;20.16;68.70;99962.53;4099964;29;19922;-53
2023/08/01 00:42:31;;;;;;;;;;;;;;;20.14;67.22;99977.84;4099961;29;20381;-55
2023/08/01 00:44:32;;;;;;;;;;;;;;;20.18;67.04;99973.94;4100042;29;20025;-55
2023/08/01 00:46:34;;;;;;;;;;;;;;;20.18;67.94;99968.59;4099078;28;20009;-56
2023/08/01 00:48:36;;;;;;;;;;;;;;;20.18;66.52;99968.59;4099914;29;19922;-55
2023/08/01 00:50:38;;;;;;;;;;;;;;;20.19;66.60;99973.78;4099908;29;19926;-54
2023/08/01 00:52:40;;;;;;;;;;;;;;;20.18;67.00;99972.09;4099851;29;19930;-56
2023/08/01 00:54:41;;;;;;;;;;;;;;;20.19;66.89;99968.44;4100013;29;19922;-56
2023/08/01 00:56:44;;;;;;;;;;;;;;;20.20;66.51;99974.66;4082061;29;19961;-56
2023/08/01 00:58:46;;;;;;;;;;;;;;;20.18;67.12;99979.25;4099951;29;19957;-56
2023/08/01 01:00:47;;;;;;;;;;;;;;;20.19;66.51;99970.28;4099628;29;19926;-56
2023/08/01 01:02:50;;;;;;;;;;;;;;;20.20;67.76;99956.78;4099633;29;19926;-55
2023/08/01 01:04:52;;;;;;;;;;;;;;;20.17;67.13;99964.22;4099924;29;19950;-55
2023/08/01 01:06:59;;;;;;;;;;;;;;;20.17;66.66;99962.41;4099035;29;19923;-55
2023/08/01 01:09:01;;;;;;;;;;;;;;;20.19;68.05;99962.28;4099905;29;19922;-56
2023/08/01 01:11:04;;;;;;;;;;;;;;;20.16;67.88;99960.72;4100094;29;20044;-56
2023/08/01 01:13:05;;;;;;;;;;;;;;;20.17;66.92;99974.91;4100172;29;19972;-56
2023/08/01 01:15:07;;;;;;;;;;;;;;;20.20;67.05;100007.53;4099691;29;19930;-56
2023/08/01 01:17:09;;;;;;;;;;;;;;;20.14;67.51;100020.56;4098935;29;20425;-56
2023/08/01 01:19:10;;;;;;;;;;;;;;;20.17;66.91;100020.28;4099725;29;19926;-56
2023/08/01 01:21:12;;;;;;;;;;;;;;;20.16;67.50;100015.94;4099814;29;19923;-56
2023/08/01 01:23:13;;;;;;;;;;;;;;;20.15;68.64;100006.25;4099632;29;19934;-56
2023/08/01 01:25:15;;;;;;;;;;;;;;;20.15;68.96;100011.59;4099513;28;19922;-56
2023/08/01 01:27:18;;;;;;;;;;;;;;;20.14;68.69;100017.91;4099237;29;19929;-55
2023/08/01 01:29:20;;;;;;;;;;;;;;;20.11;68.80;100016.34;4099621;29;19926;-54
2023/08/01 01:31:22;;;;;;;;;;;;;;;20.10;68.76;100018.16;4099679;29;20031;-54
2023/08/01 01:33:24;;;;;;;;;;;;;;;20.13;68.58;100016.22;4099325;29;19953;-55
2023/08/01 01:35:26;;;;;;;;;;;;;;;20.13;68.98;100016.22;4099749;29;19976;-56
2023/08/01 01:37:27;;;;;;;;;;;;;;;20.11;68.79;100013.69;4099195;29;20332;-56
2023/08/01 01:39:29;;;;;;;;;;;;;;;20.10;68.67;100025.34;4099473;29;19930;-55
2023/08/01 01:41:30;;;;;;;;;;;;;;;20.10;68.65;100025.34;4099617;29;19929;-56
2023/08/01 01:43:32;;;;;;;;;;;;;;;20.11;68.88;100021.69;4099677;29;19923;-56
2023/08/01 01:45:33;;;;;;;;;;;;;;;20.09;68.90;100020.97;4099332;29;19923;-56
2023/08/01 01:47:35;;;;;;;;;;;;;;;20.09;68.88;100023.63;4098750;29;20369;-55
2023/08/01 01:49:36;;;;;;;;;;;;;;;20.10;68.87;100026.16;4099556;29;20370;-56
2023/08/01 01:51:38;;;;;;;;;;;;;;;20.09;68.70;100029.81;4099734;29;20404;-55
2023/08/01 01:53:39;;;;;;;;;;;;;;;20.10;68.54;100026.16;4099568;29;20258;-55
2023/08/01 01:55:41;;;;;;;;;;;;;;;20.10;68.62;100026.16;4082576;29;19970;-56
2023/08/01 01:57:43;;;;;;;;;;;;;;;20.09;68.61;100031.66;4097756;29;20380;-56
2023/08/01 01:59:45;;;;;;;;;;;;;;;20.08;68.96;100036.13;4099646;29;20313;-56
2023/08/01 02:01:46;;;;;;;;;;;;;;;20.08;68.85;100038.78;4099146;29;19950;-56
2023/08/01 02:03:48;;;;;;;;;;;;;;;20.08;68.61;100033.44;4099322;29;19926;-55
2023/08/01 02:05:49;;;;;;;;;;;;;;;20.09;68.75;100040.50;4099400;29;19961;-56
2023/08/01 02:07:51;;;;;;;;;;;;;;;20.09;68.69;100037.81;4097444;29;20017;-56
2023/08/01 02:09:52;;;;;;;;;;;;;;;20.09;68.68;100028.97;4099831;28;19923;-55
2023/08/01 02:11:54;;;;;;;;;;;;;;;20.07;68.43;100030.94;4102598;29;19926;-56
2023/08/01 02:13:56;;;;;;;;;;;;;;;20.07;68.60;100037.13;4102551;29;20382;-56
2023/08/01 02:15:57;;;;;;;;;;;;;;;20.07;68.42;100039.78;4101655;29;20358;-57
2023/08/01 02:17:59;;;;;;;;;;;;;;;20.06;68.22;100050.59;4101832;29;19922;-56
2023/08/01 02:20:00;;;;;;;;;;;;;;;20.06;68.70;100047.91;4102107;29;19950;-56
2023/08/01 02:22:02;;;;;;;;;;;;;;;20.04;68.60;100050.72;4101947;29;19972;-57
2023/08/01 02:24:03;;;;;;;;;;;;;;;20.05;68.17;100047.09;4102166;28;20335;-56
2023/08/01 02:26:07;;;;;;;;;;;;;;;20.05;67.98;100049.75;4101961;29;19923;-56
2023/08/01 02:28:08;;;;;;;;;;;;;;;20.05;68.24;100057.75;4101885;29;20305;-56
2023/08/01 02:30:11;;;;;;;;;;;;;;;20.05;68.38;100059.56;4101718;29;19922;-56
2023/08/01 02:32:12;;;;;;;;;;;;;;;20.04;68.53;100058.72;4102053;29;19957;-56
2023/08/01 02:34:14;;;;;;;;;;;;;;;20.04;68.27;100065.91;4102054;29;19993;-55
2023/08/01 02:36:16;;;;;;;;;;;;;;;20.04;68.37;100064.06;4101158;29;19961;-56
2023/08/01 02:38:17;;;;;;;;;;;;;;;20.04;68.04;100065.91;4101776;29;19961;-56
2023/08/01 02:40:19;;;;;;;;;;;;;;;20.01;67.67;100066.16;4100806;29;19926;-56
2023/08/01 02:42:20;;;;;;;;;;;;;;;19.99;67.88;100065.44;4101745;29;19952;-56
2023/08/01 02:44:22;;;;;;;;;;;;;;;19.99;67.90;100076.97;4101263;29;19922;-57
2023/08/01 02:46:23;;;;;;;;;;;;;;;19.98;67.32;100071.75;4101197;29;20009;-56
2023/08/01 02:48:25;;;;;;;;;;;;;;;19.95;67.60;100079.06;4101594;29;19923;-56
2023/08/01 02:50:26;;;;;;;;;;;;;;;19.95;67.78;100078.19;4101767;29;19922;-56
2023/08/01 02:52:28;;;;;;;;;;;;;;;19.94;67.69;100084.53;4101485;29;19970;-56
2023/08/01 02:54:30;;;;;;;;;;;;;;;19.91;67.88;100082.13;4101753;29;19922;-56
2023/08/01 02:56:31;;;;;;;;;;;;;;;19.91;67.73;100080.28;4100891;29;20464;-56
2023/08/01 02:58:33;;;;;;;;;;;;;;;19.90;67.32;100088.41;4100983;29;19926;-56
2023/08/01 03:00:37;;;;;;;;;;;;;;;19.91;67.47;100095.47;4101413;29;19973;-56
2023/08/01 03:02:39;;;;;;;;;;;;;;;19.88;67.35;100096.56;4101536;29;19926;-57
2023/08/01 03:04:41;;;;;;;;;;;;;;;19.91;67.35;100098.13;4101625;29;20349;-55
2023/08/01 03:06:47;;;;;;;;;;;;;;;19.89;67.33;100105.41;4100734;29;19969;-56
2023/08/01 03:08:49;;;;;;;;;;;;;;;19.88;67.46;100104.56;4101415;29;19934;-56
2023/08/01 03:10:50;;;;;;;;;;;;;;;19.84;67.62;100107.63;4100076;29;20339;-56
2023/08/01 03:12:52;;;;;;;;;;;;;;;19.85;67.40;100106.66;4101307;29;19923;-55
2023/08/01 03:14:53;;;;;;;;;;;;;;;19.84;67.13;100107.63;4101418;29;20326;-55
2023/08/01 03:16:55;;;;;;;;;;;;;;;19.84;67.16;100112.97;4100669;28;19958;-56
2023/08/01 03:18:56;;;;;;;;;;;;;;;19.83;67.02;100106.75;4101136;29;20406;-55
2023/08/01 03:20:58;;;;;;;;;;;;;;;19.82;66.97;100110.41;4100711;28;19962;-55
2023/08/01 03:22:59;;;;;;;;;;;;;;;19.84;67.15;100112.97;4100412;29;19927;-56
2023/08/01 03:25:05;;;;;;;;;;;;;;;19.84;67.19;100113.78;4101151;28;19923;-54
2023/08/01 03:27:07;;;;;;;;;;;;;;;19.83;67.28;100116.56;4100558;29;19922;-56
2023/08/01 03:29:08;;;;;;;;;;;;;;;19.83;66.87;100127.25;4099558;29;19928;-55
2023/08/01 03:31:10;;;;;;;;;;;;;;;19.83;67.14;100121.91;4100962;29;19933;-56
2023/08/01 03:33:11;;;;;;;;;;;;;;;19.84;67.04;100131.66;4101420;28;20418;-54
2023/08/01 03:35:15;;;;;;;;;;;;;;;19.81;66.72;100135.38;4100980;29;19965;-54
2023/08/01 03:37:17;;;;;;;;;;;;;;;19.81;66.69;100138.06;4100341;29;19923;-55
2023/08/01 03:39:20;;;;;;;;;;;;;;;19.80;66.65;100145.19;4101257;29;20302;-56
2023/08/01 03:41:22;;;;;;;;;;;;;;;19.79;66.94;100140.88;4101089;29;19922;-56
2023/08/01 03:43:24;;;;;;;;;;;;;;;19.77;66.53;100148.13;4100718;29;20408;-56
2023/08/01 03:45:25;;;;;;;;;;;;;;;19.78;66.85;100147.16;4101102;28;19922;-55
2023/08/01 03:47:27;;;;;;;;;;;;;;;19.77;66.85;100147.31;4098855;29;20326;-53
2023/08/01 03:49:28;;;;;;;;;;;;;;;19.76;66.62;100153.63;4100684;29;19929;-55
2023/08/01 03:51:30;;;;;;;;;;;;;;;19.76;66.81;100143.78;4100832;29;19926;-56
2023/08/01 03:53:31;;;;;;;;;;;;;;;19.76;66.47;100158.94;4083544;29;19962;-56
2023/08/01 03:55:33;;;;;;;;;;;;;;;19.76;66.52;100148.28;4100654;29;19922;-56
2023/08/01 03:57:34;;;;;;;;;;;;;;;19.76;66.39;100150.94;4099777;29;19953;-56
2023/08/01 03:59:36;;;;;;;;;;;;;;;19.76;66.24;100154.44;4100427;29;19933;-57
2023/08/01 04:01:38;;;;;;;;;;;;;;;19.74;66.27;100153.72;4100648;29;19985;-56
2023/08/01 04:03:39;;;;;;;;;;;;;;;19.73;66.31;100152.06;4100663;29;20286;-56
2023/08/01 04:05:41;;;;;;;;;;;;;;;19.74;66.15;100152.88;4100291;29;19977;-57
2023/08/01 04:07:43;;;;;;;;;;;;;;;19.72;65.95;100163.69;4099835;28;20013;-56
2023/08/01 04:09:44;;;;;;;;;;;;;;;19.72;66.10;100153.03;4100199;29;20005;-56
2023/08/01 04:11:46;;;;;;;;;;;;;;;19.71;66.07;100164.66;4099940;29;19978;-54
2023/08/01 04:13:48;;;;;;;;;;;;;;;19.71;66.10;100172.66;4100542;29;19922;-56
2023/08/01 04:15:49;;;;;;;;;;;;;;;19.71;65.91;100161.13;4100504;29;20105;-56
2023/08/01 04:17:51;;;;;;;;;;;;;;;19.67;65.77;100160.53;4098615;29;20006;-55
2023/08/01 04:19:53;;;;;;;;;;;;;;;19.68;66.09;100156.91;4100153;29;19922;-56
2023/08/01 04:21:54;;;;;;;;;;;;;;;19.67;65.80;100165.03;4100334;29;19926;-56
2023/08/01 04:23:55;;;;;;;;;;;;;;;19.64;65.70;100155.47;4100296;29;20370;-56
2023/08/01 04:25:59;;;;;;;;;;;;;;;19.64;65.61;100161.63;4084137;29;19929;-55
2023/08/01 04:28:00;;;;;;;;;;;;;;;19.65;65.76;100162.50;4083732;29;19927;-54
2023/08/01 04:30:02;;;;;;;;;;;;;;;19.66;65.62;100163.34;4084277;29;19922;-56
2023/08/01 04:32:03;;;;;;;;;;;;;;;19.68;65.68;100164.06;4084315;29;20258;-56
2023/08/01 04:34:05;;;;;;;;;;;;;;;19.67;65.56;100157.03;4082821;29;19998;-56
2023/08/01 04:36:07;;;;;;;;;;;;;;;19.64;65.61;100163.47;4084216;29;19930;-56
2023/08/01 04:38:10;;;;;;;;;;;;;;;19.64;65.36;100153.63;4083806;29;19923;-57
2023/08/01 04:40:12;;;;;;;;;;;;;;;19.63;65.48;100154.59;4083841;29;20002;-56
2023/08/01 04:42:14;;;;;;;;;;;;;;;19.62;65.40;100155.59;4084117;29;19961;-56
2023/08/01 04:44:15;;;;;;;;;;;;;;;19.62;65.50;100160.94;4084225;29;20358;-56
2023/08/01 04:46:17;;;;;;;;;;;;;;;19.64;65.40;100158.97;4084118;29;19970;-55
2023/08/01 04:48:18;;;;;;;;;;;;;;;19.65;65.35;100154.50;4083696;29;19958;-57
2023/08/01 04:50:20;;;;;;;;;;;;;;;19.64;65.38;100160.81;4082846;29;19934;-56
2023/08/01 04:52:21;;;;;;;;;;;;;;;19.66;65.53;100158.00;4084218;29;19923;-56
2023/08/01 04:54:23;;;;;;;;;;;;;;;19.64;65.29;100163.47;4084182;29;19938;-55
2023/08/01 04:56:24;;;;;;;;;;;;;;;19.63;65.05;100159.94;4083828;29;19923;-54
2023/08/01 04:58:26;;;;;;;;;;;;;;;19.63;65.30;100169.78;4083637;29;19923;-56
2023/08/01 05:00:27;;;;;;;;;;;;;;;19.61;65.34;100164.56;4084082;29;20070;-54
2023/08/01 05:02:29;;;;;;;;;;;;;;;19.60;65.20;100168.22;4084059;29;19938;-55
2023/08/01 05:04:30;;;;;;;;;;;;;;;19.59;65.25;100171.03;4083950;29;19927;-55
2023/08/01 05:06:32;;;;;;;;;;;;;;;19.60;65.32;100178.88;4083656;29;19922;-57
2023/08/01 05:08:33;;;;;;;;;;;;;;;19.60;65.18;100173.56;4083724;29;19923;-56
2023/08/01 05:10:35;;;;;;;;;;;;;;;19.61;64.93;100169.91;4083430;29;19934;-57
2023/08/01 05:12:37;;;;;;;;;;;;;;;19.59;64.94;100171.03;4083830;29;19929;-56
2023/08/01 05:14:38;;;;;;;;;;;;;;;19.60;64.85;100176.22;4083882;29;19993;-56
2023/08/01 05:16:40;;;;;;;;;;;;;;;19.59;65.02;100181.69;4083381;29;20401;-56
2023/08/01 05:18:42;;;;;;;;;;;;;;;19.61;64.63;100179.72;4082430;29;19930;-55
2023/08/01 05:20:43;;;;;;;;;;;;;;;19.59;65.06;100184.34;4083974;29;19922;-56
2023/08/01 05:22:45;;;;;;;;;;;;;;;19.60;65.06;100196.69;4083659;29;19926;-56
2023/08/01 05:24:46;;;;;;;;;;;;;;;19.60;64.93;100186.88;4090059;28;19929;-55
2023/08/01 05:26:48;;;;;;;;;;;;;;;19.59;64.70;100190.53;4099230;29;19922;-56
2023/08/01 05:28:49;;;;;;;;;;;;;;;19.60;64.91;100199.38;4099537;28;20345;-56
2023/08/01 05:30:51;;;;;;;;;;;;;;;19.60;64.48;100196.69;4099716;29;19957;-54
2023/08/01 05:32:54;;;;;;;;;;;;;;;19.60;64.62;100194.91;4099707;29;20337;-55
2023/08/01 05:34:55;;;;;;;;;;;;;;;19.60;64.77;100194.91;4099863;29;19962;-57
2023/08/01 05:36:57;;;;;;;;;;;;;;;19.60;64.43;100196.69;4099099;28;20009;-56
2023/08/01 05:38:58;;;;;;;;;;;;;;;19.58;64.72;100199.50;4099177;29;19945;-56
2023/08/01 05:41:00;;;;;;;;;;;;;;;19.59;64.40;100200.38;4099409;29;19953;-56
2023/08/01 05:43:03;;;;;;;;;;;;;;;19.58;64.79;100206.66;4099751;29;19982;-55
2023/08/01 05:45:05;;;;;;;;;;;;;;;19.58;64.78;100220.00;4100546;28;19922;-56
2023/08/01 05:47:07;;;;;;;;;;;;;;;19.56;64.70;100212.13;4101770;29;19933;-55
2023/08/01 05:49:08;;;;;;;;;;;;;;;19.58;64.61;100212.00;4102439;29;19977;-55
2023/08/01 05:51:10;;;;;;;;;;;;;;;19.58;64.55;100206.66;4102567;29;19969;-55
2023/08/01 05:53:11;;;;;;;;;;;;;;;19.59;64.20;100213.69;4102264;29;19933;-54
2023/08/01 05:55:13;;;;;;;;;;;;;;;19.58;64.34;100212.84;4102338;29;19969;-53
2023/08/01 05:57:15;;;;;;;;;;;;;;;19.60;64.12;100213.56;4101732;29;19922;-56
2023/08/01 05:59:16;;;;;;;;;;;;;;;19.59;64.15;100216.38;4102188;29;20013;-55
2023/08/01 06:01:19;;;;;;;;;;;;;;;19.56;64.27;100209.47;4102467;29;19945;-56
2023/08/01 06:03:21;;;;;;;;;;;;;;;19.57;64.15;100221.81;4102332;29;19929;-56
2023/08/01 06:05:22;;;;;;;;;;;;;;;19.56;64.46;100212.13;4102349;29;19977;-56
2023/08/01 06:07:24;;;;;;;;;;;;;;;19.58;64.14;100214.66;4101215;29;20381;-56
2023/08/01 06:09:25;;;;;;;;;;;;;;;19.57;64.15;100224.47;4102280;29;19929;-56
2023/08/01 06:11:27;;;;;;;;;;;;;;;19.59;63.77;100221.69;4102143;29;20302;-56
2023/08/01 06:13:28;;;;;;;;;;;;;;;19.57;64.13;100216.47;4102080;29;19922;-56
2023/08/01 06:15:30;;;;;;;;;;;;;;;19.55;63.89;100213.09;4102131;29;19928;-56
2023/08/01 06:17:31;;;;;;;;;;;;;;;19.53;64.21;100217.69;4101509;29;19926;-56
2023/08/01 06:19:33;;;;;;;;;;;;;;;19.53;63.77;100215.03;4102183;29;20015;-56
2023/08/01 06:21:35;;;;;;;;;;;;;;;19.54;63.87;100221.22;4101644;29;20020;-56
2023/08/01 06:23:36;;;;;;;;;;;;;;;19.55;63.87;100233.56;4102017;29;20008;-56
2023/08/01 06:25:38;;;;;;;;;;;;;;;19.53;63.72;100235.53;4101854;28;20428;-56
2023/08/01 06:27:39;;;;;;;;;;;;;;;19.54;63.62;100239.88;4101336;29;20401;-56
2023/08/01 06:29:41;;;;;;;;;;;;;;;19.51;63.93;100245.47;4101884;29;20366;-55
2023/08/01 06:31:42;;;;;;;;;;;;;;;19.51;63.53;100240.97;4101711;29;20046;-56
2023/08/01 06:33:44;;;;;;;;;;;;;;;19.50;63.58;100241.94;4101836;29;19954;-56
2023/08/01 06:35:45;;;;;;;;;;;;;;;19.50;63.59;100252.63;4101883;29;20434;-56
2023/08/01 06:37:47;;;;;;;;;;;;;;;19.50;63.44;100252.63;4100897;29;20370;-56
2023/08/01 06:39:48;;;;;;;;;;;;;;;19.49;63.62;100253.63;4101662;29;19922;-56
2023/08/01 06:41:50;;;;;;;;;;;;;;;19.48;63.90;100244.75;4101554;29;19926;-56
2023/08/01 06:43:51;;;;;;;;;;;;;;;19.47;63.46;100251.03;4101875;29;20266;-56
2023/08/01 06:45:53;;;;;;;;;;;;;;;19.50;63.69;100260.63;4102043;29;19960;-56
2023/08/01 06:47:54;;;;;;;;;;;;;;;19.48;63.60;100259.91;4099785;29;19926;-56
2023/08/01 06:49:56;;;;;;;;;;;;;;;19.47;63.53;100256.38;4101725;29;19977;-57
2023/08/01 06:51:57;;;;;;;;;;;;;;;19.47;63.54;100256.38;4101209;28;19962;-55
2023/08/01 06:53:59;;;;;;;;;;;;;;;19.47;63.10;100260.88;4101459;29;19965;-56
2023/08/01 06:56:01;;;;;;;;;;;;;;;19.47;63.54;100258.22;4101345;28;19929;-56
2023/08/01 06:58:02;;;;;;;;;;;;;;;19.46;63.37;100256.50;4100813;28;19926;-56
2023/08/01 07:00:04;;;;;;;;;;;;;;;19.45;63.58;100274.34;4101360;29;19929;-57
2023/08/01 07:02:07;;;;;;;;;;;;;;;19.45;63.68;100276.16;4101453;29;19953;-56
2023/08/01 07:04:09;;;;;;;;;;;;;;;19.44;63.34;100269.97;4084621;29;19922;-56
2023/08/01 07:06:10;;;;;;;;;;;;;;;19.44;63.27;100259.31;4101152;29;19923;-56
2023/08/01 07:08:12;;;;;;;;;;;;;;;19.45;63.24;100266.34;4100606;29;19933;-56
2023/08/01 07:10:14;;;;;;;;;;;;;;;19.46;63.17;100270.69;4101374;29;20453;-55
2023/08/01 07:12:16;;;;;;;;;;;;;;;19.46;63.54;100267.19;4101022;29;20393;-56
2023/08/01 07:14:17;;;;;;;;;;;;;;;19.45;63.09;100274.34;4101439;29;19965;-56
2023/08/01 07:16:19;;;;;;;;;;;;;;;19.48;63.28;100278.56;4101222;29;19961;-56
2023/08/01 07:18:20;;;;;;;;;;;;;;;19.48;63.15;100276.75;4100314;29;20358;-57
2023/08/01 07:20:22;;;;;;;;;;;;;;;19.48;63.21;100275.91;4100908;29;19923;-57
2023/08/01 07:22:23;;;;;;;;;;;;;;;19.48;63.21;100270.59;4101151;28;19922;-56
2023/08/01 07:24:25;;;;;;;;;;;;;;;19.48;63.05;100283.91;4100912;28;20005;-55
2023/08/01 07:26:30;;;;;;;;;;;;;;;19.46;63.40;100281.34;4101163;29;19985;-56
2023/08/01 07:28:31;;;;;;;;;;;;;;;19.45;63.09;100285.00;4100307;29;19922;-56
2023/08/01 07:30:33;;;;;;;;;;;;;;;19.47;63.33;100277.72;4100937;29;20008;-55
2023/08/01 07:32:34;;;;;;;;;;;;;;;19.49;62.97;100282.94;4101066;29;19922;-56
2023/08/01 07:34:36;;;;;;;;;;;;;;;19.49;63.15;100277.63;4100747;29;19922;-56
2023/08/01 07:36:37;;;;;;;;;;;;;;;19.49;62.83;100290.94;4100891;29;19930;-55
2023/08/01 07:38:39;;;;;;;;;;;;;;;19.48;62.89;100290.09;4100225;29;19922;-56
2023/08/01 07:40:41;;;;;;;;;;;;;;;19.49;63.15;100288.28;4100978;29;19929;-56
2023/08/01 07:42:42;;;;;;;;;;;;;;;19.52;62.88;100295.19;4101024;29;19933;-56
2023/08/01 07:44:44;;;;;;;;;;;;;;;19.51;62.77;100291.66;4100778;29;20017;-55
2023/08/01 07:46:45;;;;;;;;;;;;;;;19.48;63.01;100305.25;4101003;29;19926;-54
2023/08/01 07:48:48;;;;;;;;;;;;;;;19.49;62.65;100293.63;4099895;28;20001;-55
2023/08/01 07:50:50;;;;;;;;;;;;;;;19.48;62.98;100298.09;4100688;29;20370;-55
2023/08/01 07:52:52;;;;;;;;;;;;;;;19.51;62.85;100298.81;4100660;29;20305;-56
2023/08/01 07:54:55;;;;;;;;;;;;;;;19.48;63.01;100300.75;4100565;29;19969;-55
2023/08/01 07:56:57;;;;;;;;;;;;;;;19.48;63.00;100305.25;4100468;29;19941;-56
2023/08/01 07:58:58;;;;;;;;;;;;;;;19.50;62.92;100303.28;4100009;29;19927;-56
2023/08/01 08:01:04;;;;;;;;;;;;;;;19.52;62.62;100300.53;4100783;29;19923;-57
2023/08/01 08:03:08;;;;;;;;;;;;;;;19.52;62.58;100303.19;4100391;29;19922;-53
2023/08/01 08:05:10;;;;;;;;;;;;;;;19.51;62.78;100304.16;4100742;29;20417;-54
2023/08/01 08:07:12;;;;;;;;;;;;;;;19.51;62.71;100307.66;4099869;28;19934;-57
2023/08/01 08:09:13;;;;;;;;;;;;;;;19.53;62.42;100305.72;4099899;29;20482;-55
2023/08/01 08:11:16;;;;;;;;;;;;;;;19.53;62.34;100311.06;4100414;29;19929;-55
2023/08/01 08:13:17;;;;;;;;;;;;;;;19.56;62.39;100310.81;4100436;29;19970;-56
2023/08/01 08:15:19;;;;;;;;;;;;;;;19.54;62.39;100307.44;4100485;29;19993;-56
2023/08/01 08:17:21;;;;;;;;;;;;;;;19.57;62.19;100301.81;4100008;29;19922;-56
2023/08/01 08:19:25;;;;;;;;;;;;;;;19.56;62.59;100302.81;4099910;29;19958;-56
2023/08/01 08:21:26;;;;;;;;;;;;;;;19.59;62.22;100317.72;4100316;29;19945;-53
2023/08/01 08:23:28;;;;;;;;;;;;;;;19.62;62.36;100313.00;4100688;29;19922;-55
2023/08/01 08:25:29;;;;;;;;;;;;;;;19.64;62.15;100304.88;4100015;28;19922;-53
2023/08/01 08:27:31;;;;;;;;;;;;;;;19.64;62.35;100312.88;4099627;29;19962;-55
2023/08/01 08:29:32;;;;;;;;;;;;;;;19.64;62.15;100318.19;4100116;29;19933;-53
2023/08/01 08:31:34;;;;;;;;;;;;;;;19.63;62.38;100317.34;4100202;29;20013;-55
2023/08/01 08:33:36;;;;;;;;;;;;;;;19.65;61.86;100311.91;4082897;29;19929;-56
2023/08/01 08:35:37;;;;;;;;;;;;;;;19.66;62.19;100320.75;4100084;29;20013;-55
2023/08/01 08:37:39;;;;;;;;;;;;;;;19.65;61.87;100319.91;4099553;29;19930;-56
2023/08/01 08:39:40;;;;;;;;;;;;;;;19.64;61.96;100331.53;4100191;29;19922;-55
2023/08/01 08:41:47;;;;;;;;;;;;;;;19.68;61.52;100326.81;4100484;29;20015;-55
2023/08/01 08:43:49;;;;;;;;;;;;;;;19.67;61.99;100320.59;4099588;29;19960;-56
2023/08/01 08:45:52;;;;;;;;;;;;;;;19.66;61.92;100318.94;4099842;29;20038;-55
2023/08/01 08:47:55;;;;;;;;;;;;;;;19.67;61.76;100317.09;4099021;29;19922;-56
2023/08/01 08:49:57;;;;;;;;;;;;;;;19.66;61.60;100321.59;4100152;29;19929;-57
2023/08/01 08:51:59;;;;;;;;;;;;;;;19.66;61.80;100324.28;4100277;29;19991;-56
2023/08/01 08:54:01;;;;;;;;;;;;;;;19.69;61.46;100326.69;4100009;29;20409;-55
2023/08/01 08:56:03;;;;;;;;;;;;;;;19.69;61.40;100329.34;4100113;29;19973;-55
2023/08/01 08:58:05;;;;;;;;;;;;;;;19.68;61.61;100332.16;4099203;29;19979;-55
2023/08/01 09:00:07;;;;;;;;;;;;;;;19.71;61.14;100339.88;4100106;29;19922;-55
2023/08/01 09:02:09;;;;;;;;;;;;;;;19.66;61.44;100329.59;4099585;29;19922;-54
2023/08/01 09:04:10;;;;;;;;;;;;;;;19.67;61.28;100331.28;4099891;29;19922;-51
2023/08/01 09:06:14;;;;;;;;;;;;;;;19.67;61.38;100323.28;4099866;29;20437;-54
2023/08/01 09:08:18;;;;;;;;;;;;;;;19.71;60.99;100327.41;4098844;29;20353;-56
2023/08/01 09:10:20;;;;;;;;;;;;;;;19.73;60.94;100322.81;4099506;29;19923;-56
2023/08/01 09:12:21;;;;;;;;;;;;;;;19.73;60.92;100317.47;4099517;29;19954;-52
2023/08/01 09:14:23;;;;;;;;;;;;;;;19.74;60.81;100328.97;4099816;29;20386;-52
2023/08/01 09:16:25;;;;;;;;;;;;;;;19.75;60.69;100328.84;4099401;29;19922;-56
2023/08/01 09:18:27;;;;;;;;;;;;;;;19.74;60.97;100336.97;4099029;29;20306;-55
2023/08/01 09:20:30;;;;;;;;;;;;;;;19.75;60.86;100336.00;4102890;28;19985;-55
2023/08/01 09:22:41;;;;;;;;;;;;;;;19.77;61.05;100339.41;4102856;29;20301;-57
2023/08/01 09:24:52;;;;;;;;;;;;;;;19.81;60.89;100330.19;4102644;28;19978;-55
2023/08/01 09:27:01;;;;;;;;;;;;;;;19.80;61.12;100318.63;4102605;29;19964;-54
2023/08/01 09:29:03;;;;;;;;;;;;;;;19.79;60.85;100330.31;4102093;29;20421;-54
2023/08/01 09:31:05;;;;;;;;;;;;;;;19.77;60.54;100331.41;4101414;29;19922;-56
2023/08/01 09:33:06;;;;;;;;;;;;;;;19.77;60.54;100331.41;4101639;29;20045;-55
2023/08/01 09:35:08;;;;;;;;;;;;;;;19.77;60.81;100337.59;4102676;29;19922;-55
2023/08/01 09:37:09;;;;;;;;;;;;;;;19.80;60.58;100336.50;4102648;29;19929;-56
2023/08/01 09:39:15;;;;;;;;;;;;;;;19.80;60.47;100347.16;4084945;29;19923;-55
2023/08/01 09:41:18;;;;;;;;;;;;;;;19.83;60.25;100338.91;4102725;29;20349;-54
2023/08/01 09:43:20;;;;;;;;;;;;;;;19.88;59.96;100346.56;4102748;29;19969;-56
2023/08/01 09:45:22;;;;;;;;;;;;;;;19.85;60.09;100331.66;4102681;29;19922;-56
2023/08/01 09:47:23;;;;;;;;;;;;;;;19.87;60.01;100336.88;4102600;29;20317;-57
2023/08/01 09:49:25;;;;;;;;;;;;;;;19.84;59.37;100324.63;4101697;29;20282;-55
2023/08/01 09:51:26;;;;;;;;;;;;;;;19.86;60.15;100340.53;4102516;29;19929;-55
2023/08/01 09:53:28;;;;;;;;;;;;;;;19.86;59.71;100346.69;4102315;29;19954;-54
2023/08/01 09:55:31;;;;;;;;;;;;;;;19.85;59.92;100341.50;4085471;29;19923;-55
2023/08/01 09:57:37;;;;;;;;;;;;;;;19.81;58.97;100338.19;4101955;29;20017;-56
2023/08/01 09:59:39;;;;;;;;;;;;;;;19.79;59.19;100329.44;4101807;29;19930;-55
2023/08/01 10:01:40;;;;;;;;;;;;;;;19.79;59.91;100335.66;4101121;29;19954;-55
2023/08/01 10:03:44;;;;;;;;;;;;;;;19.81;59.52;100340.84;4102340;29;19923;-56
2023/08/01 10:05:46;;;;;;;;;;;;;;;19.81;59.64;100343.53;4085436;29;19922;-56
2023/08/01 10:07:48;;;;;;;;;;;;;;;19.81;59.75;100338.19;4101673;29;20407;-54
2023/08/01 10:09:50;;;;;;;;;;;;;;;19.81;59.74;100335.53;4102188;29;19930;-54
2023/08/01 10:11:54;;;;;;;;;;;;;;;19.83;59.84;100335.38;4101961;29;19926;-55
2023/08/01 10:13:56;;;;;;;;;;;;;;;19.81;60.05;100340.84;4102077;29;19922;-56
2023/08/01 10:15:58;;;;;;;;;;;;;;;19.79;59.14;100341.00;4102218;29;19965;-51
2023/08/01 10:18:00;;;;;;;;;;;;;;;19.79;59.54;100337.44;4101373;29;19930;-54
2023/08/01 10:20:03;;;;;;;;;;;;;;;19.71;59.54;100329.22;4102282;29;19922;-51
2023/08/01 10:22:06;;;;;;;;;;;;;;;19.79;59.68;100345.47;4101983;29;19922;-55
2023/08/01 10:24:09;;;;;;;;;;;;;;;19.80;59.40;100347.16;4102009;28;19937;-53
2023/08/01 10:26:11;;;;;;;;;;;;;;;19.80;59.48;100347.16;4101916;29;19964;-56
2023/08/01 10:28:12;;;;;;;;;;;;;;;19.80;59.20;100344.50;4100950;29;19930;-55